Detall de PIREP

Printer-friendly versionPDF version

[2014/06/07 09:51:00]
Flight IATA:CT3101
Pilot Number:012
Company ICAO:CAT
Aircraft Type:C750/F
PAX:4
Departing Airport: LEBL
Destination Airport: LIEA
Alternate Airport:LIEO
Online: VATSIM
Route:VERSO UM24 LAPIT UN725 ORKUM UM603 ELSAG
Flight Level:F340
No Slew and time accel
No pause
Crash detect
Detect pilot in Cockpit between each 30 and 45 minutes
09:51 Zero fuel Weight: 22934 Lbs, Fuel Weight: 4307 Lbs
09:51 VATSIM:LEBL 070930Z 06012KT 9999 FEW004 22/17 Q1016 NOSIG
09:51 VATSIM:LIEA 070920Z VRB03KT CAVOK 32/09 Q1017
09:51 VIP ARCADI AMOROS
09:56 Parking Brakes off
10:00 Take-off
10:00 Take off Weight: 27146 Lbs
10:00 Wind: 059º @ 012 Knots Heading: 064º
10:00 POS N41º 17´ 18´´ E002º 05´ 32´´
10:00 Gear Up: 158 Knots
10:00 Flaps:3 at 158 Knots
10:00 Flaps:2 at 164 Knots
10:01 Flaps:0 at 169 Knots
10:09 TOC
10:09 Fuel Weight: 3769 Lb
10:15 Wind:243º@030 Knots Heading: 118º Ground Speed: 535 Knots Altitude 34084 ft
10:25 TOD
10:25 Fuel Weight: 3282 Lb
10:30 Wind:305º@010 Knots Heading: 097º Ground Speed: 419 Knots Altitude 21627 ft
10:41 Flaps:2 at 195 Knots
10:41 Flaps:3 at 171 Knots
10:44 Gear Down: 142 Knots
10:44 Flaps:4 at 141 Knots
10:44 Flaps:5 at 130 Knots
10:45 Wind:188º@006 Knots Heading: 199º Ground Speed: 124 Knots Altitude 2408 ft
10:48 TouchDown:Rate -164 ft/min Speed: 121 Knots
10:48 VATSIM:LIEA 071020Z 19006KT CAVOK 30/12 Q1017
10:48 Land
10:48 Wind:188º@006 Knots
10:48 Heading: 202º
10:48 Flight Duration: 00:48
10:48 Landing Weight: 25975 Lbs
10:48 POS N40º 37´ 49´´ E008º 17´ 24´´
10:51 Parking brakes on
10:51 Block to Block Duration: 00:55
10:51 Final Fuel: 3020 Lbls
10:51 Spent Fuel: 1287 Lbls
10:51 Flight Length: 312 NM
10:51 TOD Land Length: 113 NM

Exportar CSV

Powered by Drupal - Modified by Danger4k